createdAt,value
2022-10-09T00:01:46.443Z,96807.34
2022-10-09T00:04:15.214Z,96820.69
2022-10-09T00:06:45.399Z,96793.19
2022-10-09T00:09:14.519Z,96819.03
2022-10-09T00:11:42.876Z,96830.63
2022-10-09T00:14:11.656Z,96828.72
2022-10-09T00:16:40.141Z,96828.50
2022-10-09T00:19:08.914Z,96829.00
2022-10-09T00:21:37.796Z,96837.06
2022-10-09T00:24:07.969Z,96832.94
2022-10-09T00:26:36.672Z,96837.63
2022-10-09T00:29:05.992Z,96813.06
2022-10-09T00:31:34.629Z,96845.00
2022-10-09T00:34:03.384Z,96843.72
2022-10-09T00:36:32.147Z,96840.66
2022-10-09T00:39:00.882Z,96837.38
2022-10-09T00:41:34.290Z,96830.63
2022-10-09T00:44:04.021Z,96828.41
2022-10-09T00:46:46.443Z,96832.59
2022-10-09T00:49:19.037Z,96828.28
2022-10-09T00:51:49.413Z,96832.72
2022-10-09T00:54:20.337Z,96827.09
2022-10-09T00:56:50.884Z,96829.56
2022-10-09T00:59:19.963Z,96828.50
2022-10-09T01:01:49.275Z,96828.50
2022-10-09T01:04:18.411Z,96825.56
2022-10-09T01:06:57.944Z,96821.00
2022-10-09T01:09:34.049Z,96829.16
2022-10-09T01:12:08.953Z,96829.41
2022-10-09T01:14:40.982Z,96834.50
2022-10-09T01:17:14.150Z,96832.13
2022-10-09T01:20:04.495Z,96841.91
2022-10-09T01:22:40.983Z,96831.63
2022-10-09T01:25:10.640Z,96843.78
2022-10-09T01:27:42.181Z,96840.34
2022-10-09T01:30:13.369Z,96837.28
2022-10-09T01:32:46.157Z,96840.88
2022-10-09T01:35:16.308Z,96848.59
2022-10-09T01:37:46.263Z,96839.81
2022-10-09T01:40:17.264Z,96847.28
2022-10-09T01:42:48.385Z,96854.19
2022-10-09T01:45:17.541Z,96855.34
2022-10-09T01:47:46.706Z,96859.88
2022-10-09T01:50:19.714Z,96858.53
2022-10-09T01:52:51.739Z,96855.22
2022-10-09T01:55:34.714Z,96864.53
2022-10-09T01:58:08.693Z,96864.59
2022-10-09T02:00:39.354Z,96864.41
2022-10-09T02:03:10.624Z,96849.75
2022-10-09T02:05:41.024Z,96870.69
2022-10-09T02:08:10.496Z,96867.53
2022-10-09T02:10:39.068Z,96864.97
2022-10-09T02:13:09.426Z,96870.38
2022-10-09T02:15:42.879Z,96878.19
2022-10-09T02:18:14.647Z,96882.72
2022-10-09T02:20:47.326Z,96882.00
2022-10-09T02:23:19.102Z,96873.41
2022-10-09T02:25:47.807Z,96864.75
2022-10-09T02:28:17.654Z,96873.91
2022-10-09T02:30:49.212Z,96876.25
2022-10-09T02:33:18.022Z,96876.47
2022-10-09T02:35:47.657Z,96883.66
2022-10-09T02:38:16.051Z,96878.94
2022-10-09T02:40:47.409Z,96890.84
2022-10-09T02:43:17.898Z,96887.78
2022-10-09T02:45:46.446Z,96891.16
2022-10-09T02:48:14.858Z,96898.22
2022-10-09T02:50:43.694Z,96897.31
2022-10-09T02:53:12.363Z,96896.94
2022-10-09T02:55:40.614Z,96902.16
2022-10-09T02:58:12.165Z,96903.28
2022-10-09T03:00:42.071Z,96878.84
2022-10-09T03:03:10.620Z,96901.31
2022-10-09T03:05:39.066Z,96899.88
2022-10-09T03:08:08.007Z,96903.16
2022-10-09T03:10:38.757Z,96909.97
2022-10-09T03:13:07.479Z,96909.25
2022-10-09T03:15:36.311Z,96903.69
2022-10-09T03:18:07.095Z,96904.50
2022-10-09T03:20:35.508Z,96906.38
2022-10-09T03:23:03.968Z,96908.66
2022-10-09T03:25:32.700Z,96908.38
2022-10-09T03:28:01.278Z,96914.94
2022-10-09T03:30:30.375Z,96911.56
2022-10-09T03:32:59.137Z,96913.06
2022-10-09T03:35:29.299Z,96918.72
2022-10-09T03:37:57.810Z,96921.78
2022-10-09T03:40:26.432Z,96923.72
2022-10-09T03:42:54.791Z,96921.34
2022-10-09T03:45:23.771Z,96918.38
2022-10-09T03:47:52.746Z,96926.44
2022-10-09T03:50:21.193Z,96936.06
2022-10-09T03:52:51.367Z,96930.41
2022-10-09T03:55:20.209Z,96923.13
2022-10-09T03:57:48.904Z,96931.03
2022-10-09T04:00:17.858Z,96909.84
2022-10-09T04:02:46.566Z,96935.25
2022-10-09T04:05:16.099Z,96933.00
2022-10-09T04:07:44.829Z,96931.19
2022-10-09T04:10:15.201Z,96935.06
2022-10-09T04:12:43.946Z,96939.66
2022-10-09T04:15:12.908Z,96923.31
2022-10-09T04:17:41.706Z,96926.31
2022-10-09T04:20:11.129Z,96946.06
2022-10-09T04:22:39.820Z,96938.59
2022-10-09T04:25:09.467Z,96938.53
2022-10-09T04:27:39.605Z,96947.63
2022-10-09T04:30:09.773Z,96953.03
2022-10-09T04:32:38.466Z,96948.38
2022-10-09T04:35:08.250Z,96941.09
2022-10-09T04:37:36.928Z,96948.91
2022-10-09T04:40:06.281Z,96947.56
2022-10-09T04:42:35.209Z,96953.94
2022-10-09T04:45:05.597Z,96955.50
2022-10-09T04:47:35.248Z,96952.84
2022-10-09T04:50:04.685Z,96947.41
2022-10-09T04:52:33.079Z,96944.28
2022-10-09T04:55:01.953Z,96945.00
2022-10-09T04:57:30.571Z,96947.66
2022-10-09T04:59:59.552Z,96941.34
2022-10-09T05:02:30.274Z,96947.28
2022-10-09T05:04:59.310Z,96939.78
2022-10-09T05:07:28.341Z,96936.03
2022-10-09T05:09:57.587Z,96940.13
2022-10-09T05:12:29.070Z,96946.06
2022-10-09T05:14:58.760Z,96948.44
2022-10-09T05:17:34.809Z,96950.81
2022-10-09T05:20:04.208Z,96949.84
2022-10-09T05:22:32.973Z,96946.09
2022-10-09T05:25:01.715Z,96955.50
2022-10-09T05:27:30.204Z,96953.03
2022-10-09T05:29:59.031Z,96961.44
2022-10-09T05:32:27.436Z,96958.63
2022-10-09T05:34:57.585Z,96958.63
2022-10-09T05:37:26.423Z,96959.25
2022-10-09T05:39:55.142Z,96957.06
2022-10-09T05:42:23.894Z,96954.19
2022-10-09T05:44:52.365Z,96962.06
2022-10-09T05:47:20.521Z,96961.88
2022-10-09T05:49:48.956Z,96964.38
2022-10-09T05:52:19.617Z,96959.41
2022-10-09T05:54:48.256Z,96969.41
2022-10-09T05:57:16.417Z,96976.31
2022-10-09T05:59:45.014Z,96975.06
2022-10-09T06:02:14.739Z,96963.91
2022-10-09T06:04:44.326Z,96978.88
2022-10-09T06:07:12.858Z,96974.97
2022-10-09T06:09:42.736Z,96977.72
2022-10-09T06:12:11.643Z,96982.38
2022-10-09T06:14:40.148Z,96984.56
2022-10-09T06:17:08.272Z,96979.69
2022-10-09T06:19:36.874Z,96983.50
2022-10-09T06:22:05.705Z,96978.56
2022-10-09T06:24:34.212Z,96991.81
2022-10-09T06:27:06.036Z,96983.91
2022-10-09T06:29:34.795Z,96997.31
2022-10-09T06:32:03.832Z,96992.50
2022-10-09T06:34:32.662Z,96993.22
2022-10-09T06:37:00.983Z,96992.72
2022-10-09T06:39:29.999Z,96990.22
2022-10-09T06:41:58.668Z,97000.34
2022-10-09T06:44:28.556Z,97001.88
2022-10-09T06:46:56.970Z,97012.50
2022-10-09T06:49:26.001Z,97001.28
2022-10-09T06:51:55.000Z,97001.09
2022-10-09T06:54:23.540Z,97010.03
2022-10-09T06:56:52.502Z,97009.34
2022-10-09T06:59:20.841Z,97013.00
2022-10-09T07:01:51.158Z,97013.22
2022-10-09T07:04:20.305Z,97013.91
2022-10-09T07:06:50.749Z,97009.53
2022-10-09T07:09:20.457Z,97014.66
2022-10-09T07:11:50.494Z,97015.53
2022-10-09T07:14:20.223Z,97016.03
2022-10-09T07:16:51.014Z,97020.78
2022-10-09T07:19:19.884Z,97021.91
2022-10-09T07:21:51.069Z,97025.44
2022-10-09T07:24:21.589Z,97024.84
2022-10-09T07:26:51.191Z,97018.72
2022-10-09T07:29:21.238Z,97027.97
2022-10-09T07:31:53.316Z,97025.22
2022-10-09T07:34:22.029Z,97028.97
2022-10-09T07:36:50.712Z,97030.47
2022-10-09T07:39:20.302Z,97038.28
2022-10-09T07:41:51.724Z,97036.31
2022-10-09T07:44:20.351Z,97031.88
2022-10-09T07:46:53.070Z,97036.72
2022-10-09T07:49:22.306Z,97042.22
2022-10-09T07:51:50.944Z,97041.47
2022-10-09T07:54:19.452Z,97044.09
2022-10-09T07:56:48.348Z,97042.59
2022-10-09T07:59:17.959Z,97030.00
2022-10-09T08:01:48.998Z,97031.91
2022-10-09T08:04:19.447Z,97030.72
2022-10-09T08:06:50.117Z,97037.06
2022-10-09T08:09:21.559Z,97024.84
2022-10-09T08:11:50.446Z,97021.09
2022-10-09T08:14:19.573Z,97032.31
2022-10-09T08:16:49.168Z,97022.97
2022-10-09T08:19:19.171Z,97020.53
2022-10-09T08:21:48.259Z,97029.94
2022-10-09T08:24:16.790Z,97026.91
2022-10-09T08:26:45.696Z,97030.69
2022-10-09T08:29:16.686Z,97028.56
2022-10-09T08:31:45.705Z,97031.03
2022-10-09T08:34:14.372Z,97028.28
2022-10-09T08:36:45.168Z,97032.72
2022-10-09T08:39:14.008Z,97029.50
2022-10-09T08:41:48.406Z,97041.56
2022-10-09T08:44:19.996Z,97030.84
2022-10-09T08:47:00.942Z,97022.84
2022-10-09T08:49:34.525Z,97014.38
2022-10-09T08:52:16.744Z,97016.06
2022-10-09T08:54:45.073Z,97009.25
2022-10-09T08:57:15.878Z,97009.53
2022-10-09T08:59:44.668Z,97020.16
2022-10-09T09:02:28.962Z,97026.75
2022-10-09T09:05:05.451Z,97027.66
2022-10-09T09:07:41.731Z,97029.63
2022-10-09T09:10:15.108Z,97029.00
2022-10-09T09:12:50.103Z,97021.28
2022-10-09T09:15:37.009Z,97027.34
2022-10-09T09:18:21.398Z,97026.97
2022-10-09T09:20:54.674Z,97029.09
2022-10-09T09:27:31.824Z,97020.38
2022-10-09T09:30:04.298Z,97017.00
2022-10-09T09:32:33.715Z,97014.56
2022-10-09T09:35:10.795Z,97006.88
2022-10-09T09:37:39.863Z,97014.13
2022-10-09T09:40:36.706Z,97006.00
2022-10-09T09:43:08.509Z,97003.19
2022-10-09T09:45:36.788Z,97004.34
2022-10-09T09:48:08.504Z,97003.06
2022-10-09T09:50:53.103Z,97003.75
2022-10-09T09:53:33.875Z,97005.25
2022-10-09T09:56:02.360Z,97004.94
2022-10-09T09:58:35.624Z,97001.94
2022-10-09T10:01:06.600Z,97002.19
2022-10-09T10:03:36.058Z,96996.56
2022-10-09T10:06:04.754Z,96992.03
2022-10-09T10:08:34.837Z,96991.44
2022-10-09T10:11:07.216Z,96979.63
2022-10-09T10:13:39.926Z,96973.16
2022-10-09T10:16:10.227Z,96967.78
2022-10-09T10:18:41.199Z,96978.88
2022-10-09T10:21:13.674Z,96981.69
2022-10-09T10:23:45.831Z,96961.06
2022-10-09T10:26:23.256Z,96964.34
2022-10-09T10:28:56.541Z,96974.56
2022-10-09T10:31:36.636Z,96968.53
2022-10-09T10:34:06.490Z,96961.66
2022-10-09T10:36:35.628Z,96965.94
2022-10-09T10:39:09.804Z,96968.06
2022-10-09T10:41:42.946Z,96963.59
2022-10-09T10:44:20.866Z,96964.75
2022-10-09T10:46:54.723Z,96955.13
2022-10-09T10:49:33.819Z,96955.69
2022-10-09T10:52:18.193Z,96932.88
2022-10-09T10:54:57.870Z,96954.84
2022-10-09T10:57:32.390Z,96950.03
2022-10-09T11:00:06.558Z,96948.69
2022-10-09T11:02:59.676Z,96949.22
2022-10-09T11:05:47.065Z,96944.47
2022-10-09T11:08:30.405Z,96945.00
2022-10-09T11:11:06.454Z,96947.31
2022-10-09T11:13:36.250Z,96936.97
2022-10-09T11:16:21.803Z,96949.28
2022-10-09T11:19:04.234Z,96929.44
2022-10-09T11:21:42.943Z,96935.28
2022-10-09T11:24:24.128Z,96932.72
2022-10-09T11:27:03.138Z,96936.56
2022-10-09T11:29:36.350Z,96935.78
2022-10-09T11:32:13.896Z,96932.44
2022-10-09T11:34:46.353Z,96922.94
2022-10-09T11:37:18.499Z,96904.31
2022-10-09T11:39:47.344Z,96916.59
2022-10-09T11:42:20.010Z,96914.41
2022-10-09T11:45:03.247Z,96900.41
2022-10-09T11:47:39.697Z,96907.16
2022-10-09T11:50:24.803Z,96901.03
2022-10-09T11:52:59.069Z,96886.38
2022-10-09T11:55:29.226Z,96890.91
2022-10-09T11:58:09.422Z,96885.94
2022-10-09T12:00:38.625Z,96892.31
2022-10-09T12:03:09.413Z,96877.97
2022-10-09T12:05:42.980Z,96868.38
2022-10-09T12:08:18.309Z,96867.66
2022-10-09T12:10:52.620Z,96866.41
2022-10-09T12:13:42.312Z,96864.78
2022-10-09T12:16:12.715Z,96860.34
2022-10-09T12:18:46.712Z,96860.41
2022-10-09T12:21:23.640Z,96867.81
2022-10-09T12:23:52.812Z,96849.38
2022-10-09T12:26:23.116Z,96850.69
2022-10-09T12:28:53.458Z,96848.16
2022-10-09T12:31:25.845Z,96840.88
2022-10-09T12:33:58.491Z,96833.63
2022-10-09T12:36:28.565Z,96825.53
2022-10-09T12:38:57.151Z,96829.75
2022-10-09T12:41:27.750Z,96836.63
2022-10-09T12:43:57.363Z,96835.16
2022-10-09T12:46:32.050Z,96827.13
2022-10-09T12:49:09.879Z,96831.66
2022-10-09T12:51:38.351Z,96821.28
2022-10-09T12:54:09.876Z,96816.22
2022-10-09T12:56:39.807Z,96805.53
2022-10-09T12:59:09.193Z,96818.00
2022-10-09T13:01:37.728Z,96807.44
2022-10-09T13:04:09.743Z,96810.13
2022-10-09T13:06:44.208Z,96809.59
2022-10-09T13:09:24.781Z,96792.66
2022-10-09T13:11:55.926Z,96804.84
2022-10-09T13:14:34.606Z,96807.53
2022-10-09T13:17:03.820Z,96803.19
2022-10-09T13:19:37.451Z,96806.00
2022-10-09T13:22:21.242Z,96790.16
2022-10-09T13:24:53.129Z,96789.50
2022-10-09T13:27:21.612Z,96791.19
2022-10-09T13:29:50.121Z,96787.78
2022-10-09T13:32:19.178Z,96782.72
2022-10-09T13:34:48.943Z,96796.72
2022-10-09T13:37:20.321Z,96796.88
2022-10-09T13:39:48.994Z,96788.69
2022-10-09T13:42:17.966Z,96793.44
2022-10-09T13:44:46.562Z,96790.06
2022-10-09T13:47:15.359Z,96784.50
2022-10-09T13:49:44.241Z,96785.44
2022-10-09T13:52:13.935Z,96781.19
2022-10-09T13:54:42.512Z,96774.56
2022-10-09T13:57:10.963Z,96770.69
2022-10-09T13:59:39.637Z,96765.84
2022-10-09T14:02:08.204Z,96778.00
2022-10-09T14:04:37.141Z,96765.41
2022-10-09T14:07:05.820Z,96757.69
2022-10-09T14:09:35.601Z,96758.09
2022-10-09T14:12:03.924Z,96754.59
2022-10-09T14:14:32.164Z,96750.94
2022-10-09T14:17:00.767Z,96753.22
2022-10-09T14:19:28.951Z,96755.38
2022-10-09T14:21:57.480Z,96749.03
2022-10-09T14:24:26.653Z,96749.25
2022-10-09T14:26:56.708Z,96740.94
2022-10-09T14:29:25.414Z,96740.59
2022-10-09T14:31:53.948Z,96734.41
2022-10-09T14:34:22.164Z,96722.97
2022-10-09T14:36:50.780Z,96731.50
2022-10-09T14:39:19.378Z,96728.84
2022-10-09T14:41:48.520Z,96731.88
2022-10-09T14:44:18.426Z,96729.91
2022-10-09T14:46:47.052Z,96723.66
2022-10-09T14:49:16.239Z,96718.16
2022-10-09T14:51:44.664Z,96719.81
2022-10-09T14:54:14.907Z,96718.34
2022-10-09T14:56:43.397Z,96697.28
2022-10-09T14:59:11.927Z,96707.38
2022-10-09T15:01:42.558Z,96704.47
2022-10-09T15:04:11.536Z,96715.31
2022-10-09T15:06:41.330Z,96709.06
2022-10-09T15:09:09.820Z,96711.19
2022-10-09T15:11:38.399Z,96701.53
2022-10-09T15:14:07.894Z,96695.00
2022-10-09T15:16:36.466Z,96707.44
2022-10-09T15:19:07.085Z,96705.09
2022-10-09T15:21:37.059Z,96699.94
2022-10-09T15:24:06.666Z,96705.56
2022-10-09T15:26:37.111Z,96709.59
2022-10-09T15:29:08.251Z,96711.81
2022-10-09T15:31:39.788Z,96709.47
2022-10-09T15:34:11.200Z,96711.16
2022-10-09T15:36:43.286Z,96731.34
2022-10-09T15:39:11.940Z,96713.53
2022-10-09T15:41:42.754Z,96712.28
2022-10-09T15:44:17.708Z,96718.81
2022-10-09T15:47:50.413Z,96709.06
2022-10-09T15:50:21.698Z,96702.22
2022-10-09T15:52:50.671Z,96702.63
2022-10-09T15:55:19.471Z,96702.06
2022-10-09T15:57:47.903Z,96703.19
2022-10-09T16:00:17.049Z,96701.34
2022-10-09T16:02:46.730Z,96705.53
2022-10-09T16:05:16.155Z,96704.13
2022-10-09T16:07:46.444Z,96703.47
2022-10-09T16:10:15.075Z,96705.31
2022-10-09T16:12:45.726Z,96708.75
2022-10-09T16:15:14.519Z,96702.84
2022-10-09T16:17:43.112Z,96701.81
2022-10-09T16:20:11.818Z,96708.06
2022-10-09T16:22:40.609Z,96701.81
2022-10-09T16:25:11.619Z,96712.66
2022-10-09T16:27:40.288Z,96707.78
2022-10-09T16:30:12.238Z,96708.75
2022-10-09T16:32:40.855Z,96713.91
2022-10-09T16:35:10.916Z,96711.34
2022-10-09T16:37:40.074Z,96712.75
2022-10-09T16:40:11.663Z,96723.94
2022-10-09T16:42:40.497Z,96720.56
2022-10-09T16:45:10.948Z,96723.78
2022-10-09T16:47:43.009Z,96724.00
2022-10-09T16:50:12.919Z,96733.81
2022-10-09T16:52:42.562Z,96730.88
2022-10-09T16:55:12.645Z,96727.84
2022-10-09T16:57:41.315Z,96712.00
2022-10-09T17:00:12.448Z,96731.19
2022-10-09T17:02:41.057Z,96735.00
2022-10-09T17:05:11.299Z,96735.38
2022-10-09T17:07:41.450Z,96729.75
2022-10-09T17:10:12.483Z,96721.44
2022-10-09T17:12:48.477Z,96720.13
2022-10-09T17:15:17.412Z,96721.19
2022-10-09T17:17:46.834Z,96712.63
2022-10-09T17:20:16.022Z,96722.38
2022-10-09T17:22:45.049Z,96729.50
2022-10-09T17:25:15.769Z,96730.88
2022-10-09T17:27:45.008Z,96725.44
2022-10-09T17:30:14.450Z,96721.91
2022-10-09T17:32:43.544Z,96721.97
2022-10-09T17:35:12.467Z,96719.81
2022-10-09T17:37:42.757Z,96721.25
2022-10-09T17:40:11.743Z,96724.47
2022-10-09T17:42:41.874Z,96716.56
2022-10-09T17:45:12.258Z,96719.69
2022-10-09T17:47:43.757Z,96720.19
2022-10-09T17:50:13.594Z,96707.59
2022-10-09T17:52:43.119Z,96717.22
2022-10-09T17:55:11.523Z,96718.75
2022-10-09T17:57:42.691Z,96714.47
2022-10-09T18:00:13.543Z,96713.53
2022-10-09T18:02:43.552Z,96695.22
2022-10-09T18:05:13.039Z,96699.00
2022-10-09T18:07:42.179Z,96703.50
2022-10-09T18:10:11.226Z,96703.69
2022-10-09T18:12:39.933Z,96708.81
2022-10-09T18:15:11.332Z,96698.88
2022-10-09T18:17:42.948Z,96703.41
2022-10-09T18:20:12.138Z,96698.16
2022-10-09T18:22:46.442Z,96703.09
2022-10-09T18:25:16.045Z,96690.59
2022-10-09T18:27:45.766Z,96691.91
2022-10-09T18:30:17.473Z,96697.16
2022-10-09T18:32:46.668Z,96697.16
2022-10-09T18:35:15.824Z,96686.91
2022-10-09T18:37:46.221Z,96691.19
2022-10-09T18:40:15.961Z,96662.31
2022-10-09T18:42:45.298Z,96677.97
2022-10-09T18:45:17.835Z,96682.38
2022-10-09T18:47:47.660Z,96678.69
2022-10-09T18:50:19.775Z,96671.94
2022-10-09T18:52:54.101Z,96678.09
2022-10-09T18:55:25.196Z,96672.38
2022-10-09T18:57:56.207Z,96675.81
2022-10-09T19:00:27.329Z,96679.31
2022-10-09T19:02:56.477Z,96677.78
2022-10-09T19:05:28.804Z,96672.34
2022-10-09T19:07:58.356Z,96674.19
2022-10-09T19:10:27.122Z,96671.81
2022-10-09T19:12:59.017Z,96675.00
2022-10-09T19:15:42.247Z,96680.13
2022-10-09T19:18:21.110Z,96678.28
2022-10-09T19:20:55.706Z,96679.28
2022-10-09T19:23:33.142Z,96672.66
2022-10-09T19:26:06.512Z,96678.38
2022-10-09T19:28:51.634Z,96673.16
2022-10-09T19:31:25.670Z,96674.47
2022-10-09T19:33:56.733Z,96673.84
2022-10-09T19:36:33.155Z,96672.72
2022-10-09T19:39:10.668Z,96665.88
2022-10-09T19:41:50.096Z,96651.22
2022-10-09T19:44:24.924Z,96660.13
2022-10-09T19:46:59.684Z,96669.44
2022-10-09T19:49:32.869Z,96667.88
2022-10-09T19:52:01.886Z,96669.03
2022-10-09T19:54:30.460Z,96661.22
2022-10-09T19:56:59.155Z,96660.69
2022-10-09T19:59:29.099Z,96654.94
2022-10-09T20:01:59.245Z,96658.34
2022-10-09T20:04:28.438Z,96650.13
2022-10-09T20:06:56.901Z,96655.97
2022-10-09T20:09:25.616Z,96649.19
2022-10-09T20:11:54.296Z,96646.66
2022-10-09T20:14:22.957Z,96651.75
2022-10-09T20:16:51.331Z,96640.63
2022-10-09T20:19:21.279Z,96643.97
2022-10-09T20:21:49.551Z,96641.09
2022-10-09T20:24:18.571Z,96645.16
2022-10-09T20:26:47.314Z,96638.44
2022-10-09T20:29:16.473Z,96643.72
2022-10-09T20:31:47.729Z,96638.03
2022-10-09T20:34:17.253Z,96635.69
2022-10-09T20:36:47.029Z,96636.97
2022-10-09T20:39:16.331Z,96629.19
2022-10-09T20:41:45.008Z,96632.94
2022-10-09T20:44:13.696Z,96637.31
2022-10-09T20:46:42.862Z,96627.91
2022-10-09T20:49:13.561Z,96617.47
2022-10-09T20:51:42.023Z,96629.22
2022-10-09T20:54:18.032Z,96623.94
2022-10-09T20:56:47.203Z,96621.53
2022-10-09T20:59:16.205Z,96632.69
2022-10-09T21:01:44.771Z,96621.66
2022-10-09T21:04:14.778Z,96631.88
2022-10-09T21:06:44.603Z,96622.94
2022-10-09T21:09:15.206Z,96617.41
2022-10-09T21:11:46.106Z,96622.50
2022-10-09T21:14:16.005Z,96616.78
2022-10-09T21:16:44.849Z,96614.31
2022-10-09T21:19:14.227Z,96615.34
2022-10-09T21:21:45.321Z,96616.78
2022-10-09T21:24:17.718Z,96617.72
2022-10-09T21:26:47.510Z,96609.22
2022-10-09T21:29:16.288Z,96616.16
2022-10-09T21:31:44.732Z,96620.06
2022-10-09T21:34:13.230Z,96610.03
2022-10-09T21:37:08.496Z,96610.03
2022-10-09T21:39:33.355Z,96609.84
2022-10-09T21:42:02.031Z,96604.94
2022-10-09T21:44:30.538Z,96605.94
2022-10-09T21:46:59.052Z,96598.34
2022-10-09T21:49:28.959Z,96602.84
2022-10-09T21:51:58.573Z,96574.69
2022-10-09T21:54:27.414Z,96586.09
2022-10-09T21:56:57.095Z,96586.88
2022-10-09T21:59:25.504Z,96580.88
2022-10-09T22:01:54.276Z,96584.31
2022-10-09T22:04:23.338Z,96575.88
2022-10-09T22:06:51.957Z,96562.97
2022-10-09T22:09:20.561Z,96568.63
2022-10-09T22:11:49.179Z,96574.47
2022-10-09T22:14:18.937Z,96570.16
2022-10-09T22:16:47.523Z,96569.34
2022-10-09T22:19:16.180Z,96565.63
2022-10-09T22:21:44.472Z,96561.81
2022-10-09T22:24:13.094Z,96554.34
2022-10-09T22:26:41.568Z,96554.63
2022-10-09T22:29:10.377Z,96554.81
2022-10-09T22:31:40.289Z,96549.44
2022-10-09T22:34:08.641Z,96539.44
2022-10-09T22:36:37.672Z,96533.50
2022-10-09T22:39:07.780Z,96537.63
2022-10-09T22:41:36.900Z,96536.41
2022-10-09T22:44:06.869Z,96532.31
2022-10-09T22:46:36.581Z,96533.22
2022-10-09T22:49:06.795Z,96527.09
2022-10-09T22:51:35.782Z,96526.19
2022-10-09T22:54:04.370Z,96521.19
2022-10-09T22:56:34.433Z,96523.84
2022-10-09T22:59:03.037Z,96522.91
2022-10-09T23:01:34.942Z,96523.84
2022-10-09T23:04:07.455Z,96514.63
2022-10-09T23:06:36.367Z,96524.94
2022-10-09T23:09:06.364Z,96523.13
2022-10-09T23:11:34.760Z,96525.47
2022-10-09T23:14:03.898Z,96518.00
2022-10-09T23:16:32.969Z,96522.91
2022-10-09T23:19:06.404Z,96517.91
2022-10-09T23:21:37.811Z,96510.34
2022-10-09T23:24:06.752Z,96512.75
2022-10-09T23:26:36.645Z,96515.28
2022-10-09T23:29:07.350Z,96503.16
2022-10-09T23:31:36.173Z,96499.06
2022-10-09T23:34:05.054Z,96500.06
2022-10-09T23:36:33.979Z,96499.97
2022-10-09T23:39:06.637Z,96495.59
2022-10-09T23:41:35.452Z,96499.06
2022-10-09T23:44:04.042Z,96492.63
2022-10-09T23:46:34.240Z,96491.59
2022-10-09T23:49:02.782Z,96467.66
2022-10-09T23:51:31.753Z,96466.91
2022-10-09T23:54:00.310Z,96477.66
2022-10-09T23:56:32.249Z,96478.03
2022-10-09T23:59:01.949Z,96480.84
